Time;durP1;ratioP1;P1;durP2;ratioP2;P2;SDS_P1;SDS_P2;PMS_P1;PMS_P2;Temp;Humidity;BMP_temperature;BMP_pressure;BME280_temperature;BME280_humidity;BME280_pressure;Samples;Min_cycle;Max_cycle;Signal;HPM_P1;HPM_P2
2023/04/11 00:01:31;;;;;;;4.38;1.42;;;10.80;99.90;;;;;;4778395;29;20195;-82
2023/04/11 00:03:57;;;;;;;10.02;1.60;;;10.80;99.90;;;;;;4780747;30;20242;-81
2023/04/11 00:06:24;;;;;;;8.40;2.10;;;10.70;99.90;;;;;;4802998;29;20227;-81
2023/04/11 00:08:51;;;;;;;7.75;1.67;;;10.60;99.90;;;;;;4807385;29;20192;-83
2023/04/11 00:11:17;;;;;;;9.25;1.77;;;10.60;99.90;;;;;;4819981;29;20198;-81
2023/04/11 00:13:47;;;;;;;5.00;1.67;;;10.50;99.90;;;;;;4779962;29;20685;-81
2023/04/11 00:16:13;;;;;;;8.65;1.63;;;10.50;99.90;;;;;;4784809;29;20196;-82
2023/04/11 00:18:43;;;;;;;8.45;2.10;;;10.40;99.90;;;;;;4790075;29;20203;-82
2023/04/11 00:21:09;;;;;;;5.63;1.55;;;10.40;99.90;;;;;;4777208;29;20313;-82
2023/04/11 00:23:35;;;;;;;8.55;2.20;;;10.30;99.90;;;;;;4800167;29;20275;-81
2023/04/11 00:26:02;;;;;;;9.32;2.00;;;10.30;99.90;;;;;;4807545;29;20282;-82
2023/04/11 00:28:27;;;;;;;9.80;2.50;;;10.30;99.90;;;;;;4789220;29;20230;-82
2023/04/11 00:30:53;;;;;;;11.20;2.40;;;10.20;99.90;;;;;;4781585;29;20220;-82
2023/04/11 00:33:19;;;;;;;14.15;2.58;;;10.10;99.90;;;;;;4798524;29;20215;-82
2023/04/11 00:35:45;;;;;;;9.82;2.30;;;10.10;99.90;;;;;;4784265;30;20259;-81
2023/04/11 00:38:11;;;;;;;12.13;2.35;;;10.10;99.90;;;;;;4794499;29;20494;-85
2023/04/11 00:40:37;;;;;;;12.55;2.60;;;10.00;99.90;;;;;;4804059;29;20362;-81
2023/04/11 00:43:03;;;;;;;11.77;2.67;;;10.00;99.90;;;;;;4792578;29;20200;-81
2023/04/11 00:45:29;;;;;;;15.85;2.45;;;9.90;99.90;;;;;;4802929;29;20192;-81
2023/04/11 00:47:55;;;;;;;14.27;2.40;;;9.90;99.90;;;;;;4802605;29;20189;-81
2023/04/11 00:50:21;;;;;;;13.90;2.78;;;9.80;99.90;;;;;;4774760;29;20200;-82
2023/04/11 00:52:49;;;;;;;12.55;2.53;;;9.80;99.90;;;;;;4778376;29;20202;-80
2023/04/11 00:55:15;;;;;;;14.07;2.80;;;9.80;99.90;;;;;;4766842;29;20200;-81
2023/04/11 00:57:42;;;;;;;19.30;3.15;;;9.70;99.90;;;;;;4792462;29;20199;-81
2023/04/11 01:00:09;;;;;;;14.40;3.05;;;9.70;99.90;;;;;;4803223;29;20333;-81
2023/04/11 01:02:41;;;;;;;21.80;3.28;;;9.70;99.90;;;;;;4786493;29;20661;-81
2023/04/11 01:05:09;;;;;;;12.45;2.75;;;9.60;99.90;;;;;;4779191;29;20192;-83
2023/04/11 01:07:38;;;;;;;17.30;3.28;;;9.60;99.90;;;;;;4788837;29;20662;-81
2023/04/11 01:10:05;;;;;;;17.98;3.33;;;9.60;99.90;;;;;;4790391;29;20533;-81
2023/04/11 01:12:31;;;;;;;14.40;3.10;;;9.50;99.90;;;;;;4804168;29;20192;-85
2023/04/11 01:14:57;;;;;;;16.40;2.85;;;9.50;99.90;;;;;;4801292;29;20222;-81
2023/04/11 01:17:24;;;;;;;15.52;3.13;;;9.40;99.90;;;;;;4803067;29;20196;-81
2023/04/11 01:19:51;;;;;;;19.13;3.65;;;9.40;99.90;;;;;;4778157;29;20650;-83
2023/04/11 01:22:21;;;;;;;15.10;3.10;;;9.40;99.90;;;;;;4784906;29;20180;-82
2023/04/11 01:24:48;;;;;;;18.73;3.35;;;9.40;99.90;;;;;;4803377;29;20680;-82
2023/04/11 01:27:14;;;;;;;20.63;3.80;;;9.30;99.90;;;;;;4822625;29;20218;-82
2023/04/11 01:29:40;;;;;;;16.60;3.45;;;9.30;99.90;;;;;;4786526;29;20195;-83
2023/04/11 01:32:06;;;;;;;16.58;3.22;;;9.30;99.90;;;;;;4805866;29;20188;-82
2023/04/11 01:34:34;;;;;;;17.60;3.35;;;9.20;99.90;;;;;;4800937;29;20223;-83
2023/04/11 01:37:00;;;;;;;12.73;3.28;;;9.20;99.90;;;;;;4775594;29;20252;-82
2023/04/11 01:39:28;;;;;;;16.40;2.45;;;9.20;99.90;;;;;;4800052;29;20282;-82
2023/04/11 01:41:55;;;;;;;15.23;2.83;;;9.20;99.90;;;;;;4793181;29;20195;-82
2023/04/11 01:44:22;;;;;;;16.13;2.70;;;9.20;99.90;;;;;;4808181;29;20196;-82
2023/04/11 01:46:48;;;;;;;14.65;3.20;;;9.20;99.90;;;;;;4787892;29;20204;-82
2023/04/11 01:49:15;;;;;;;15.48;3.10;;;9.20;99.90;;;;;;4797399;29;20187;-82
2023/04/11 01:51:41;;;;;;;9.68;2.30;;;9.20;99.90;;;;;;4789417;29;20207;-82
2023/04/11 01:54:06;;;;;;;11.55;2.65;;;9.20;99.90;;;;;;4782582;29;20224;-80
2023/04/11 01:56:32;;;;;;;12.98;1.98;;;9.20;99.90;;;;;;4801602;29;20569;-82
2023/04/11 01:59:00;;;;;;;9.68;1.75;;;9.20;99.90;;;;;;4804615;29;20203;-82
2023/04/11 02:01:26;;;;;;;14.00;2.20;;;9.20;99.90;;;;;;4792590;29;20199;-83
2023/04/11 02:03:51;;;;;;;11.75;1.98;;;9.20;99.90;;;;;;4789625;29;20196;-83
2023/04/11 02:06:17;;;;;;;9.75;1.60;;;9.20;99.90;;;;;;4780439;29;20203;-82
2023/04/11 02:08:44;;;;;;;11.35;1.67;;;9.20;99.90;;;;;;4796889;29;20289;-80
2023/04/11 02:11:10;;;;;;;8.55;1.40;;;9.20;99.90;;;;;;4789983;29;20215;-80
2023/04/11 02:13:36;;;;;;;7.97;1.48;;;9.10;99.90;;;;;;4765540;30;20227;-81
2023/04/11 02:16:16;;;;;;;6.70;1.70;;;9.10;99.90;;;;;;4799558;29;20216;-81
2023/04/11 02:18:44;;;;;;;8.45;1.30;;;9.10;99.90;;;;;;4787438;29;20192;-81
2023/04/11 02:21:10;;;;;;;3.15;1.02;;;9.10;99.90;;;;;;4789443;29;20197;-81
2023/04/11 02:23:36;;;;;;;5.57;1.40;;;9.10;99.90;;;;;;4802695;29;20196;-82
2023/04/11 02:26:03;;;;;;;7.22;1.38;;;9.10;99.90;;;;;;4796478;29;20192;-81
2023/04/11 02:28:29;;;;;;;3.13;0.90;;;9.10;99.90;;;;;;4812102;29;20183;-81
2023/04/11 02:30:55;;;;;;;9.65;1.20;;;9.10;99.90;;;;;;4812589;29;20195;-80
2023/04/11 02:33:21;;;;;;;5.13;1.30;;;9.00;99.90;;;;;;4811124;29;20272;-82
2023/04/11 02:35:47;;;;;;;1.92;1.00;;;9.00;99.90;;;;;;4795664;29;20220;-81
2023/04/11 02:38:13;;;;;;;6.65;1.40;;;9.00;99.90;;;;;;4779566;29;20567;-82
2023/04/11 02:40:39;;;;;;;3.90;1.38;;;9.00;99.90;;;;;;4811367;29;20249;-82
2023/04/11 02:43:06;;;;;;;1.75;0.90;;;9.00;99.90;;;;;;4797389;29;20717;-81
2023/04/11 02:45:32;;;;;;;5.07;1.23;;;9.00;99.90;;;;;;4795632;29;20200;-81
2023/04/11 02:47:59;;;;;;;3.80;1.30;;;9.00;99.90;;;;;;4792237;29;20578;-84
2023/04/11 02:50:25;;;;;;;4.30;1.30;;;9.00;99.90;;;;;;4809967;29;20275;-81
2023/04/11 02:52:53;;;;;;;7.68;1.20;;;9.00;99.90;;;;;;4796241;29;20387;-83
2023/04/11 02:55:23;;;;;;;5.35;1.10;;;9.00;99.90;;;;;;4792948;29;20192;-83
2023/04/11 02:57:50;;;;;;;4.20;1.33;;;9.00;99.90;;;;;;4764198;30;20196;-82
2023/04/11 03:00:19;;;;;;;6.28;1.60;;;9.00;99.90;;;;;;4808653;29;20196;-82
2023/04/11 03:02:49;;;;;;;4.80;1.60;;;9.00;99.90;;;;;;4778409;29;20193;-83
2023/04/11 03:05:19;;;;;;;7.60;1.20;;;9.00;99.90;;;;;;4804534;29;20197;-82
2023/04/11 03:07:48;;;;;;;6.18;1.33;;;8.90;99.90;;;;;;4798711;29;20313;-82
2023/04/11 03:10:14;;;;;;;3.97;1.65;;;8.90;99.90;;;;;;4806146;29;20233;-82
2023/04/11 03:12:40;;;;;;;8.43;1.80;;;9.00;99.90;;;;;;4775388;29;20680;-82
2023/04/11 03:15:08;;;;;;;4.18;1.80;;;8.90;99.90;;;;;;4777896;29;20257;-82
2023/04/11 03:17:34;;;;;;;4.32;1.80;;;8.90;99.90;;;;;;4802926;29;20247;-83
2023/04/11 03:20:01;;;;;;;4.95;1.88;;;8.90;99.90;;;;;;4791656;29;20291;-82
2023/04/11 03:22:29;;;;;;;6.20;1.83;;;8.90;99.90;;;;;;4798642;29;20645;-83
2023/04/11 03:24:54;;;;;;;8.25;1.70;;;8.90;99.90;;;;;;4791923;29;20337;-83
2023/04/11 03:27:22;;;;;;;7.78;1.77;;;8.90;99.90;;;;;;4791831;29;20234;-83
2023/04/11 03:29:52;;;;;;;6.72;1.73;;;8.90;99.90;;;;;;4791073;29;20195;-82
2023/04/11 03:32:26;;;;;;;4.28;1.60;;;8.90;99.90;;;;;;4791764;29;20199;-82
2023/04/11 03:34:52;;;;;;;9.02;1.65;;;9.00;99.90;;;;;;4805988;29;20242;-82
2023/04/11 03:37:19;;;;;;;6.43;1.95;;;8.90;99.90;;;;;;4764772;30;20262;-82
2023/04/11 03:39:45;;;;;;;7.53;1.80;;;8.90;99.90;;;;;;4793212;29;20580;-83
2023/04/11 03:42:11;;;;;;;7.65;2.10;;;8.90;99.90;;;;;;4776534;29;20239;-83
2023/04/11 03:44:38;;;;;;;7.25;1.90;;;8.90;99.90;;;;;;4781727;29;20294;-82
2023/04/11 03:47:04;;;;;;;7.78;1.88;;;8.90;99.90;;;;;;4784027;29;20729;-82
2023/04/11 03:49:36;;;;;;;10.05;2.33;;;8.90;99.90;;;;;;4778601;29;20196;-82
2023/04/11 03:52:03;;;;;;;6.90;2.00;;;8.90;99.90;;;;;;4791896;29;20198;-82
2023/04/11 03:54:29;;;;;;;9.57;2.15;;;8.90;99.90;;;;;;4792949;29;20761;-83
2023/04/11 03:56:56;;;;;;;6.97;1.90;;;8.90;99.90;;;;;;4807662;29;20199;-83
2023/04/11 03:59:23;;;;;;;8.38;2.30;;;9.00;99.90;;;;;;4800004;29;20207;-82
2023/04/11 04:02:05;;;;;;;9.55;2.10;;;8.90;99.90;;;;;;4787439;29;20220;-82
2023/04/11 04:04:33;;;;;;;10.63;2.60;;;8.90;99.90;;;;;;4806789;29;20294;-83
2023/04/11 04:07:08;;;;;;;9.52;2.10;;;8.90;99.90;;;;;;4771677;29;20263;-82
2023/04/11 04:09:40;;;;;;;13.25;2.60;;;9.00;99.90;;;;;;4787799;29;20203;-83
2023/04/11 04:12:06;;;;;;;13.13;2.63;;;9.00;99.90;;;;;;4791482;29;20234;-82
2023/04/11 04:14:52;;;;;;;12.85;2.70;;;8.90;99.90;;;;;;4803009;29;20292;-82
2023/04/11 04:17:19;;;;;;;12.02;2.58;;;8.90;99.90;;;;;;4800401;29;20207;-84
2023/04/11 04:19:45;;;;;;;10.75;2.80;;;9.00;99.90;;;;;;4791970;29;20201;-82
2023/04/11 04:22:12;;;;;;;15.55;3.15;;;9.00;99.90;;;;;;4775812;29;20200;-82
2023/04/11 04:24:46;;;;;;;7.78;3.08;;;9.00;99.90;;;;;;4793075;29;20200;-81
2023/04/11 04:27:20;;;;;;;14.15;3.17;;;9.00;99.90;;;;;;4777712;29;20649;-81
2023/04/11 04:29:47;;;;;;;14.00;3.50;;;9.00;99.90;;;;;;4775295;29;20192;-82
2023/04/11 04:32:21;;;;;;;10.93;2.83;;;9.00;99.90;;;;;;4791351;29;20239;-83
2023/04/11 04:34:49;;;;;;;17.60;3.20;;;9.00;99.90;;;;;;4776727;29;20215;-83
2023/04/11 04:37:25;;;;;;;15.00;3.17;;;9.00;99.90;;;;;;4783123;29;20192;-82
2023/04/11 04:40:06;;;;;;;10.73;2.85;;;9.00;99.90;;;;;;4775619;29;20191;-82
2023/04/11 04:42:40;;;;;;;15.75;3.25;;;9.00;99.90;;;;;;4790985;29;20218;-82
2023/04/11 04:45:06;;;;;;;12.30;3.20;;;9.00;99.90;;;;;;4761967;30;20632;-82
2023/04/11 04:47:35;;;;;;;14.35;3.15;;;9.00;99.90;;;;;;4788825;29;20195;-83
2023/04/11 04:50:02;;;;;;;11.70;2.90;;;9.00;99.90;;;;;;4790017;29;20227;-82
2023/04/11 04:52:29;;;;;;;15.00;3.20;;;9.00;99.90;;;;;;4802065;29;20191;-82
2023/04/11 04:54:56;;;;;;;9.60;2.90;;;8.90;99.90;;;;;;4790442;29;20250;-84
2023/04/11 04:57:27;;;;;;;19.05;3.58;;;8.90;99.90;;;;;;4791081;29;20192;-83
2023/04/11 04:59:54;;;;;;;13.02;3.40;;;8.90;99.90;;;;;;4788228;29;20283;-83
2023/04/11 05:02:20;;;;;;;10.73;3.30;;;8.90;99.90;;;;;;4808378;29;20204;-83
2023/04/11 05:04:49;;;;;;;15.10;3.38;;;8.90;99.90;;;;;;4790961;29;20211;-83
2023/04/11 05:07:17;;;;;;;13.93;3.17;;;8.90;99.90;;;;;;4790607;29;20286;-83
2023/04/11 05:09:45;;;;;;;15.93;3.40;;;8.90;99.90;;;;;;4805729;29;20264;-82
2023/04/11 05:12:19;;;;;;;18.67;3.67;;;8.90;99.90;;;;;;4790935;29;20189;-82
2023/04/11 05:14:46;;;;;;;15.27;3.88;;;9.00;99.90;;;;;;4787712;29;20224;-82
2023/04/11 05:17:12;;;;;;;15.68;3.70;;;9.00;99.90;;;;;;4772822;30;20211;-83
2023/04/11 05:19:38;;;;;;;20.85;3.72;;;8.90;99.90;;;;;;4757904;30;20196;-83
2023/04/11 05:22:04;;;;;;;13.20;3.08;;;9.00;99.90;;;;;;4772767;30;20275;-84
2023/04/11 05:24:34;;;;;;;12.65;3.75;;;8.90;99.90;;;;;;4774053;29;20192;-83
2023/04/11 05:27:03;;;;;;;11.98;3.05;;;8.90;99.90;;;;;;4780571;30;20200;-83
2023/04/11 05:29:29;;;;;;;14.02;3.63;;;8.90;99.90;;;;;;4772170;30;20188;-83
2023/04/11 05:31:55;;;;;;;13.55;3.20;;;8.90;99.90;;;;;;4787981;29;20680;-82
2023/04/11 05:34:21;;;;;;;14.70;3.75;;;9.00;99.90;;;;;;4796478;29;20593;-82
2023/04/11 05:36:48;;;;;;;12.15;3.67;;;9.00;99.90;;;;;;4811571;29;20203;-83
2023/04/11 05:39:14;;;;;;;7.97;3.10;;;9.00;99.90;;;;;;4823265;29;20187;-81
2023/04/11 05:41:40;;;;;;;11.95;2.92;;;8.90;99.90;;;;;;4793154;29;20294;-82
2023/04/11 05:44:06;;;;;;;19.08;3.65;;;8.90;99.90;;;;;;4791911;29;20656;-81
2023/04/11 05:46:35;;;;;;;11.27;3.15;;;8.90;99.90;;;;;;4823484;29;20278;-82
2023/04/11 05:49:01;;;;;;;13.57;3.17;;;8.90;99.90;;;;;;4804165;29;20195;-82
2023/04/11 05:51:27;;;;;;;11.20;3.17;;;8.90;99.90;;;;;;4775319;29;20195;-82
2023/04/11 05:53:53;;;;;;;15.45;3.28;;;8.90;99.90;;;;;;4760694;29;20220;-83
2023/04/11 05:56:19;;;;;;;16.92;3.20;;;8.80;99.90;;;;;;4805877;29;20261;-83
2023/04/11 05:58:45;;;;;;;19.25;3.50;;;8.80;99.90;;;;;;4808692;29;20346;-82
2023/04/11 06:01:17;;;;;;;16.52;3.30;;;8.80;99.90;;;;;;4810470;29;20631;-81
2023/04/11 06:03:47;;;;;;;19.88;3.95;;;8.80;99.90;;;;;;4811158;29;20179;-83
2023/04/11 06:06:13;;;;;;;14.82;3.45;;;8.90;99.90;;;;;;4818628;29;20184;-83
2023/04/11 06:08:39;;;;;;;16.70;3.33;;;8.90;99.90;;;;;;4773967;30;20314;-82
2023/04/11 06:11:05;;;;;;;18.60;3.20;;;8.80;99.90;;;;;;4790541;29;20227;-81
2023/04/11 06:13:30;;;;;;;15.43;3.35;;;8.90;99.90;;;;;;4789727;30;20635;-81
2023/04/11 06:15:56;;;;;;;12.85;3.28;;;8.90;99.90;;;;;;4788517;30;20193;-82
2023/04/11 06:18:22;;;;;;;10.55;3.33;;;8.90;99.90;;;;;;4787783;30;20580;-82
2023/04/11 06:20:48;;;;;;;13.77;3.60;;;8.90;99.90;;;;;;4786893;30;20185;-83
2023/04/11 06:23:14;;;;;;;11.25;3.08;;;8.90;99.90;;;;;;4786828;29;20200;-81
2023/04/11 06:25:40;;;;;;;16.80;3.60;;;9.00;99.90;;;;;;4774919;29;20564;-81
2023/04/11 06:28:05;;;;;;;12.02;3.70;;;8.90;99.90;;;;;;4805758;29;20187;-81
2023/04/11 06:30:31;;;;;;;20.25;3.78;;;9.00;99.90;;;;;;4789618;29;20271;-82
2023/04/11 06:32:57;;;;;;;17.23;3.63;;;9.10;99.90;;;;;;4789625;29;20212;-81
2023/04/11 06:35:25;;;;;;;16.48;4.13;;;9.10;99.90;;;;;;4789441;29;20204;-82
2023/04/11 06:37:51;;;;;;;10.75;3.28;;;9.10;99.90;;;;;;4804709;29;20200;-81
2023/04/11 06:40:19;;;;;;;16.67;3.65;;;9.10;99.90;;;;;;4784771;29;20280;-81
2023/04/11 06:42:48;;;;;;;18.77;3.70;;;9.20;99.90;;;;;;4773811;30;20188;-80
2023/04/11 06:45:14;;;;;;;14.93;3.17;;;9.20;99.90;;;;;;4774883;30;20193;-81
2023/04/11 06:47:40;;;;;;;14.68;4.07;;;9.10;99.90;;;;;;4789903;30;20732;-84
2023/04/11 06:50:06;;;;;;;12.88;3.10;;;9.10;99.90;;;;;;4792366;29;20191;-85
2023/04/11 06:52:32;;;;;;;13.45;3.50;;;9.10;99.90;;;;;;4767822;29;20227;-82
2023/04/11 06:54:58;;;;;;;16.35;3.70;;;9.00;99.90;;;;;;4795260;29;20266;-81
2023/04/11 06:57:24;;;;;;;16.25;3.83;;;9.10;99.90;;;;;;4784720;30;20204;-82
2023/04/11 06:59:49;;;;;;;17.02;3.50;;;9.10;99.90;;;;;;4789469;30;20187;-84
2023/04/11 07:02:15;;;;;;;14.70;3.55;;;9.10;99.90;;;;;;4790152;29;20224;-83
2023/04/11 07:04:41;;;;;;;16.25;3.72;;;9.10;99.90;;;;;;4791448;29;20215;-81
2023/04/11 07:07:07;;;;;;;21.48;3.28;;;9.10;99.90;;;;;;4808380;29;20295;-82
2023/04/11 07:09:32;;;;;;;17.58;3.83;;;9.20;99.90;;;;;;4813342;29;20215;-82
2023/04/11 07:11:58;;;;;;;22.17;3.47;;;9.20;99.90;;;;;;4811264;29;20649;-83
2023/04/11 07:14:24;;;;;;;14.70;3.22;;;9.20;99.90;;;;;;4803887;29;20240;-81
2023/04/11 07:16:50;;;;;;;12.50;3.25;;;9.30;99.90;;;;;;4792433;29;20188;-86
2023/04/11 07:19:16;;;;;;;14.77;3.05;;;9.40;99.90;;;;;;4801801;29;20199;-83
2023/04/11 07:21:41;;;;;;;19.02;3.92;;;9.60;99.90;;;;;;4775399;29;20196;-83
2023/04/11 07:24:09;;;;;;;19.58;3.60;;;9.90;99.90;;;;;;4796848;29;20210;-83
2023/04/11 07:26:37;;;;;;;16.77;3.22;;;10.10;99.90;;;;;;4791394;29;20200;-85
2023/04/11 07:29:03;;;;;;;15.15;3.30;;;10.30;99.90;;;;;;4795329;29;20195;-83
2023/04/11 07:31:29;;;;;;;21.33;3.50;;;10.30;99.90;;;;;;4807711;29;20188;-83
2023/04/11 07:33:55;;;;;;;18.45;3.40;;;10.40;99.90;;;;;;4790099;29;20303;-83
2023/04/11 07:36:21;;;;;;;23.48;3.70;;;10.50;99.90;;;;;;4777466;29;20284;-83
2023/04/11 07:38:47;;;;;;;16.77;3.33;;;10.70;99.90;;;;;;4788494;29;20203;-83
2023/04/11 07:41:13;;;;;;;11.00;2.38;;;11.00;99.90;;;;;;4789297;29;20204;-83
2023/04/11 07:43:39;;;;;;;16.52;3.30;;;11.20;99.90;;;;;;4788779;29;20208;-83
2023/04/11 07:46:05;;;;;;;17.42;3.05;;;11.30;99.90;;;;;;4770890;29;20221;-83
2023/04/11 07:48:31;;;;;;;16.00;2.90;;;11.50;99.90;;;;;;4792775;29;20231;-83
2023/04/11 07:50:57;;;;;;;16.75;3.20;;;11.90;99.90;;;;;;4774129;30;20254;-83
2023/04/11 07:53:23;;;;;;;17.50;3.10;;;12.10;99.90;;;;;;4787718;29;20223;-83
2023/04/11 07:55:48;;;;;;;13.60;2.85;;;12.10;99.90;;;;;;4792129;29;20214;-83
2023/04/11 07:58:14;;;;;;;16.55;2.63;;;11.90;99.90;;;;;;4805595;29;20216;-84
2023/04/11 08:00:40;;;;;;;18.60;2.95;;;11.70;99.90;;;;;;4791449;29;20677;-83
2023/04/11 08:03:10;;;;;;;18.25;2.95;;;11.30;99.90;;;;;;4806595;29;20250;-83
2023/04/11 08:05:36;;;;;;;13.32;2.83;;;11.00;99.90;;;;;;4796760;29;20188;-83
2023/04/11 08:08:03;;;;;;;10.65;2.50;;;10.80;99.90;;;;;;4816985;29;20275;-83
2023/04/11 08:10:29;;;;;;;12.70;2.42;;;10.60;99.90;;;;;;4810149;29;20191;-84
2023/04/11 08:12:55;;;;;;;13.85;2.55;;;10.40;99.90;;;;;;4809662;29;20282;-85
2023/04/11 08:15:21;;;;;;;15.13;2.80;;;10.30;99.90;;;;;;4809654;29;20197;-85
2023/04/11 08:17:48;;;;;;;11.38;2.05;;;11.20;99.90;;;;;;4807144;29;20183;-84
2023/04/11 08:20:15;;;;;;;12.20;2.50;;;13.00;99.90;;;;;;4807063;29;20195;-84
2023/04/11 08:22:43;;;;;;;11.07;2.40;;;14.60;99.90;;;;;;4806227;29;20203;-85
2023/04/11 08:25:11;;;;;;;17.42;2.70;;;15.40;99.90;;;;;;4807435;29;20649;-84
2023/04/11 08:27:37;;;;;;;13.23;2.50;;;15.20;99.90;;;;;;4806420;29;20263;-83
2023/04/11 08:30:07;;;;;;;14.80;2.38;;;14.60;99.90;;;;;;4789405;29;20199;-84
2023/04/11 08:32:34;;;;;;;19.23;3.20;;;14.00;99.90;;;;;;4806422;29;20188;-85
2023/04/11 08:35:00;;;;;;;17.85;3.00;;;14.00;99.90;;;;;;4784823;29;20235;-85
2023/04/11 08:37:27;;;;;;;16.70;2.80;;;14.20;99.90;;;;;;4791266;29;20565;-84
2023/04/11 08:39:53;;;;;;;11.52;2.83;;;14.00;99.90;;;;;;4791130;29;20192;-84
2023/04/11 08:42:29;;;;;;;11.95;2.45;;;13.70;99.90;;;;;;4807400;29;20192;-84
2023/04/11 08:44:58;;;;;;;13.05;2.45;;;13.90;99.90;;;;;;4776213;29;20656;-83
2023/04/11 08:47:25;;;;;;;19.30;2.90;;;14.30;99.90;;;;;;4805500;29;20214;-83
2023/04/11 08:49:51;;;;;;;10.75;3.00;;;14.30;99.90;;;;;;4803345;29;20188;-84
2023/04/11 08:52:20;;;;;;;9.55;2.42;;;14.00;99.90;;;;;;4791524;29;20183;-83
2023/04/11 08:54:48;;;;;;;14.13;2.58;;;13.90;99.90;;;;;;4775926;29;20242;-84
2023/04/11 08:57:30;;;;;;;12.70;2.53;;;14.20;99.90;;;;;;4795528;29;20200;-84
2023/04/11 09:00:08;;;;;;;11.02;2.38;;;15.10;99.90;;;;;;4810543;29;20217;-84
2023/04/11 09:02:33;;;;;;;15.75;2.92;;;15.70;99.90;;;;;;4795165;29;20203;-83
2023/04/11 09:04:59;;;;;;;7.82;2.08;;;15.70;99.90;;;;;;4808150;29;20200;-84
2023/04/11 09:07:25;;;;;;;7.93;2.13;;;15.40;99.90;;;;;;4778272;29;20692;-84
2023/04/11 09:09:51;;;;;;;10.23;2.10;;;15.00;99.90;;;;;;4794669;29;20193;-83
2023/04/11 09:12:26;;;;;;;10.80;2.30;;;14.80;99.90;;;;;;4790665;29;20661;-83
2023/04/11 09:14:52;;;;;;;8.43;2.40;;;14.60;99.90;;;;;;4790507;29;20220;-83
2023/04/11 09:17:18;;;;;;;11.38;2.25;;;14.40;99.90;;;;;;4767315;30;20780;-84
2023/04/11 09:19:44;;;;;;;7.97;2.50;;;14.40;99.90;;;;;;4798250;29;20195;-83
2023/04/11 09:22:11;;;;;;;9.43;2.13;;;14.40;99.90;;;;;;4775310;29;20207;-83
2023/04/11 09:24:37;;;;;;;8.27;1.90;;;14.30;99.90;;;;;;4789667;29;20720;-84
2023/04/11 09:27:15;;;;;;;9.60;1.60;;;14.20;99.90;;;;;;4789543;29;20283;-84
2023/04/11 09:29:44;;;;;;;8.75;1.80;;;14.00;99.90;;;;;;4790333;29;20192;-83
2023/04/11 09:32:33;;;;;;;8.15;1.85;;;13.80;99.90;;;;;;4790978;29;20271;-83
2023/04/11 09:35:19;;;;;;;7.13;1.70;;;13.60;99.90;;;;;;4803862;29;20226;-84
2023/04/11 09:37:59;;;;;;;6.38;1.92;;;13.20;99.90;;;;;;4788979;29;20263;-83
2023/04/11 09:40:27;;;;;;;10.18;2.00;;;12.80;99.90;;;;;;4790468;29;20202;-83
2023/04/11 09:42:59;;;;;;;7.82;2.03;;;12.50;99.90;;;;;;4790429;29;20195;-81
2023/04/11 09:45:26;;;;;;;8.95;1.88;;;12.20;99.90;;;;;;4786868;29;20271;-81
2023/04/11 09:47:57;;;;;;;11.07;2.10;;;12.00;99.90;;;;;;4789342;29;20188;-83
2023/04/11 09:50:25;;;;;;;9.13;2.00;;;11.80;99.90;;;;;;4785916;29;20222;-83
2023/04/11 09:52:52;;;;;;;8.48;1.80;;;11.70;99.90;;;;;;4787296;30;20731;-82
2023/04/11 09:55:23;;;;;;;6.88;1.90;;;11.80;99.90;;;;;;4789705;29;20207;-82
2023/04/11 09:57:50;;;;;;;11.40;2.30;;;12.00;99.90;;;;;;4787517;29;20204;-82
2023/04/11 10:00:28;;;;;;;19.15;2.50;;;12.40;99.90;;;;;;4789558;29;20184;-86
2023/04/11 10:02:54;;;;;;;13.18;2.45;;;12.60;99.90;;;;;;4772685;30;20169;-82
2023/04/11 10:05:27;;;;;;;5.07;1.42;;;12.70;99.90;;;;;;4790409;29;20653;-82
2023/04/11 10:08:05;;;;;;;7.05;1.30;;;12.50;99.90;;;;;;4781011;29;20318;-83
2023/04/11 10:10:31;;;;;;;6.53;1.60;;;12.20;99.90;;;;;;4790570;29;20341;-82
2023/04/11 10:12:57;;;;;;;7.70;1.55;;;11.90;99.90;;;;;;4788014;30;20185;-81
2023/04/11 10:15:23;;;;;;;6.57;1.63;;;11.70;99.90;;;;;;4819701;29;20183;-81
2023/04/11 10:18:09;;;;;;;10.20;1.70;;;11.50;99.90;;;;;;4785624;29;20633;-82
2023/04/11 10:20:37;;;;;;;5.60;1.50;;;11.50;99.90;;;;;;4807707;29;20760;-83
2023/04/11 10:23:04;;;;;;;6.63;1.40;;;11.70;99.90;;;;;;4808997;29;20195;-81
2023/04/11 10:25:32;;;;;;;7.32;1.60;;;11.90;99.90;;;;;;4822074;29;20201;-82
2023/04/11 10:28:00;;;;;;;5.45;1.50;;;12.30;99.90;;;;;;4787017;30;20209;-83
2023/04/11 10:30:40;;;;;;;9.38;1.70;;;12.60;99.90;;;;;;4813732;29;20367;-82
2023/04/11 10:33:17;;;;;;;11.13;2.13;;;12.70;99.90;;;;;;4792993;29;20191;-81
2023/04/11 10:35:56;;;;;;;8.27;1.73;;;12.70;99.90;;;;;;4797196;29;20659;-83
2023/04/11 10:38:42;;;;;;;3.58;1.42;;;12.60;99.90;;;;;;4804514;29;20184;-83
2023/04/11 10:41:16;;;;;;;5.18;1.50;;;12.50;99.90;;;;;;4796259;29;20195;-82
2023/04/11 10:43:43;;;;;;;6.22;1.60;;;12.20;99.90;;;;;;4809715;29;20199;-82
2023/04/11 10:46:23;;;;;;;5.90;1.40;;;11.80;99.90;;;;;;4809346;29;20180;-82
2023/04/11 10:49:04;;;;;;;5.43;1.25;;;11.40;99.90;;;;;;4809186;29;20253;-82
2023/04/11 10:51:31;;;;;;;7.18;1.27;;;11.10;99.90;;;;;;4809533;29;20233;-82
2023/04/11 10:53:58;;;;;;;4.75;1.77;;;11.00;99.90;;;;;;4798202;29;20584;-82
2023/04/11 10:56:44;;;;;;;7.88;1.60;;;10.90;99.90;;;;;;4801298;29;20195;-81
2023/04/11 10:59:33;;;;;;;9.45;1.90;;;10.80;99.90;;;;;;4807864;29;20250;-82
2023/04/11 11:02:00;;;;;;;6.90;1.48;;;10.80;99.90;;;;;;4791529;29;20284;-83
2023/04/11 11:04:36;;;;;;;8.30;2.40;;;10.90;99.90;;;;;;4800302;29;20203;-82
2023/04/11 11:07:06;;;;;;;7.22;1.90;;;11.00;99.90;;;;;;4794320;29;20199;-83
2023/04/11 11:09:33;;;;;;;13.93;2.40;;;11.10;99.90;;;;;;4794358;29;20196;-82
2023/04/11 11:12:13;;;;;;;10.57;2.28;;;11.20;99.90;;;;;;4788048;29;20188;-81
2023/04/11 11:14:42;;;;;;;9.18;2.22;;;11.40;99.90;;;;;;4771877;29;20913;-81
2023/04/11 11:17:08;;;;;;;9.20;2.17;;;11.50;99.90;;;;;;4794210;29;20189;-81
2023/04/11 11:19:34;;;;;;;9.88;2.17;;;11.70;99.90;;;;;;4775613;29;20231;-81
2023/04/11 11:22:05;;;;;;;10.63;2.42;;;11.80;99.90;;;;;;4780835;30;20654;-81
2023/04/11 11:24:31;;;;;;;9.80;2.30;;;12.00;99.90;;;;;;4782623;29;20200;-81
2023/04/11 11:26:57;;;;;;;10.48;2.47;;;12.30;99.90;;;;;;4777684;29;20191;-81
2023/04/11 11:29:35;;;;;;;10.65;2.35;;;12.50;99.90;;;;;;4800163;29;20276;-82
2023/04/11 11:32:02;;;;;;;10.82;1.95;;;12.80;99.90;;;;;;4777704;29;20278;-81
2023/04/11 11:34:33;;;;;;;9.20;2.00;;;12.90;99.90;;;;;;4783332;29;20224;-82
2023/04/11 11:37:03;;;;;;;8.75;2.15;;;13.10;99.90;;;;;;4807114;29;20244;-82
2023/04/11 11:39:30;;;;;;;9.43;1.92;;;13.20;99.90;;;;;;4799948;29;20251;-81
2023/04/11 11:41:57;;;;;;;8.23;2.05;;;13.20;99.90;;;;;;4773945;29;20288;-82
2023/04/11 11:44:28;;;;;;;10.52;2.03;;;13.30;99.90;;;;;;4795047;29;20200;-82
2023/04/11 11:47:08;;;;;;;9.25;1.75;;;13.30;99.90;;;;;;4807417;29;20192;-82
2023/04/11 11:49:54;;;;;;;7.93;1.67;;;13.20;99.90;;;;;;4798273;29;20727;-82
2023/04/11 11:52:39;;;;;;;8.60;2.00;;;13.20;99.90;;;;;;4773987;30;20276;-82
2023/04/11 11:55:17;;;;;;;7.85;1.63;;;13.20;99.90;;;;;;4787557;29;20242;-82
2023/04/11 11:57:45;;;;;;;6.13;1.20;;;13.10;99.90;;;;;;4795392;29;20550;-82
2023/04/11 12:00:11;;;;;;;10.15;1.75;;;13.10;99.90;;;;;;4788208;29;20193;-82
2023/04/11 12:02:39;;;;;;;8.70;1.70;;;13.10;99.90;;;;;;4788977;30;20185;-82
2023/04/11 12:05:06;;;;;;;7.75;1.58;;;13.10;99.90;;;;;;4803994;29;20199;-83
2023/04/11 12:07:35;;;;;;;6.72;1.80;;;13.20;99.90;;;;;;4810166;29;20230;-84
2023/04/11 12:10:12;;;;;;;11.25;2.00;;;13.20;99.90;;;;;;4795398;29;20203;-84
2023/04/11 12:12:42;;;;;;;10.45;2.13;;;13.20;99.90;;;;;;4807895;29;20191;-83
2023/04/11 12:15:16;;;;;;;7.78;2.00;;;13.10;99.90;;;;;;4787290;29;20247;-84
2023/04/11 12:17:46;;;;;;;10.00;2.03;;;12.80;99.90;;;;;;4789963;29;20193;-83
2023/04/11 12:20:14;;;;;;;12.93;2.60;;;12.50;99.90;;;;;;4801587;29;20292;-81
2023/04/11 12:22:40;;;;;;;10.05;2.30;;;12.30;99.90;;;;;;4788589;30;20233;-83
2023/04/11 12:25:13;;;;;;;13.15;2.47;;;12.30;99.90;;;;;;4789987;30;20720;-83
2023/04/11 12:27:44;;;;;;;9.10;2.28;;;12.40;99.90;;;;;;4788605;29;20236;-82
2023/04/11 12:30:12;;;;;;;13.32;2.58;;;12.50;99.90;;;;;;4803769;29;20196;-82
2023/04/11 12:32:37;;;;;;;10.52;2.60;;;12.60;99.90;;;;;;4791762;29;20249;-81
2023/04/11 12:35:04;;;;;;;10.55;2.25;;;12.60;99.90;;;;;;4791663;29;20693;-84
2023/04/11 12:37:32;;;;;;;7.10;2.00;;;12.60;99.90;;;;;;4785214;29;20204;-83
2023/04/11 12:39:58;;;;;;;12.43;1.90;;;12.40;99.90;;;;;;4792116;29;20681;-84
2023/04/11 12:42:25;;;;;;;11.98;1.90;;;12.20;99.90;;;;;;4808314;29;20278;-82
2023/04/11 12:44:50;;;;;;;6.32;1.60;;;12.10;99.90;;;;;;4808186;29;20206;-83
2023/04/11 12:47:16;;;;;;;10.32;1.95;;;12.00;99.90;;;;;;4793232;29;20191;-82
2023/04/11 12:49:42;;;;;;;9.13;2.08;;;12.00;99.90;;;;;;4761683;30;20234;-84
2023/04/11 12:52:08;;;;;;;10.55;2.53;;;12.10;99.90;;;;;;4799620;29;20213;-83